sensor_id;sensor_type;location;lat;lon;timestamp;temperature;humidity
10010;DHT22;5044;48.652;9.250;2022-11-30T06:22:30;5.00;99.90
10010;DHT22;5044;48.652;9.250;2022-11-30T06:24:57;5.00;99.90
10010;DHT22;5044;48.652;9.250;2022-11-30T06:27:29;5.40;99.90
10010;DHT22;5044;48.652;9.250;2022-11-30T06:29:59;5.80;99.90
10010;DHT22;5044;48.652;9.250;2022-11-30T06:32:28;5.50;99.90
10010;DHT22;5044;48.652;9.250;2022-11-30T06:34:58;5.00;99.90
10010;DHT22;5044;48.652;9.250;2022-11-30T06:37:34;5.20;99.90
10010;DHT22;5044;48.652;9.250;2022-11-30T06:40:06;5.00;99.90
10010;DHT22;5044;48.652;9.250;2022-11-30T06:42:40;5.00;99.90
10010;DHT22;5044;48.652;9.250;2022-11-30T06:45:16;5.00;99.90
10010;DHT22;5044;48.652;9.250;2022-11-30T06:47:44;5.50;99.90
10010;DHT22;5044;48.652;9.250;2022-11-30T06:50:12;4.90;99.90
10010;DHT22;5044;48.652;9.250;2022-11-30T06:53:03;4.90;99.90
10010;DHT22;5044;48.652;9.250;2022-11-30T06:55:30;4.90;99.90
10010;DHT22;5044;48.652;9.250;2022-11-30T06:58:07;5.20;99.90
10010;DHT22;5044;48.652;9.250;2022-11-30T07:00:38;5.40;99.90
10010;DHT22;5044;48.652;9.250;2022-11-30T07:03:10;4.90;99.90
10010;DHT22;5044;48.652;9.250;2022-11-30T07:05:46;5.00;99.90
10010;DHT22;5044;48.652;9.250;2022-11-30T07:08:17;4.90;99.90
10010;DHT22;5044;48.652;9.250;2022-11-30T07:10:47;4.90;99.90
10010;DHT22;5044;48.652;9.250;2022-11-30T07:13:18;4.90;99.90
10010;DHT22;5044;48.652;9.250;2022-11-30T07:15:45;4.80;99.90
10010;DHT22;5044;48.652;9.250;2022-11-30T07:18:19;4.80;99.90
10010;DHT22;5044;48.652;9.250;2022-11-30T07:20:51;4.90;99.90
10010;DHT22;5044;48.652;9.250;2022-11-30T07:23:24;5.40;99.90
10010;DHT22;5044;48.652;9.250;2022-11-30T07:26:14;5.10;99.90
10010;DHT22;5044;48.652;9.250;2022-11-30T07:28:46;4.90;99.90
10010;DHT22;5044;48.652;9.250;2022-11-30T07:31:25;5.30;99.90
10010;DHT22;5044;48.652;9.250;2022-11-30T07:34:01;5.00;99.90
10010;DHT22;5044;48.652;9.250;2022-11-30T07:36:30;4.90;99.90
10010;DHT22;5044;48.652;9.250;2022-11-30T07:39:11;4.90;99.90
10010;DHT22;5044;48.652;9.250;2022-11-30T07:41:42;5.00;99.90
10010;DHT22;5044;48.652;9.250;2022-11-30T07:44:20;4.70;99.90
10010;DHT22;5044;48.652;9.250;2022-11-30T07:46:50;5.00;99.90
10010;DHT22;5044;48.652;9.250;2022-11-30T07:49:20;5.00;99.90
10010;DHT22;5044;48.652;9.250;2022-11-30T07:51:52;5.00;99.90
10010;DHT22;5044;48.652;9.250;2022-11-30T07:54:21;5.10;99.90
10010;DHT22;5044;48.652;9.250;2022-11-30T07:56:56;5.00;99.90
10010;DHT22;5044;48.652;9.250;2022-11-30T07:59:24;5.20;99.90
10010;DHT22;5044;48.652;9.250;2022-11-30T08:01:57;5.10;99.90
10010;DHT22;5044;48.652;9.250;2022-11-30T08:04:30;5.10;99.90
10010;DHT22;5044;48.652;9.250;2022-11-30T08:06:58;5.10;99.90
10010;DHT22;5044;48.652;9.250;2022-11-30T08:09:34;5.20;99.90
10010;DHT22;5044;48.652;9.250;2022-11-30T08:12:07;5.20;99.90
10010;DHT22;5044;48.652;9.250;2022-11-30T08:14:38;5.30;99.90
10010;DHT22;5044;48.652;9.250;2022-11-30T08:20:11;5.30;99.90
10010;DHT22;5044;48.652;9.250;2022-11-30T08:22:43;5.10;99.90
10010;DHT22;5044;48.652;9.250;2022-11-30T08:25:27;5.70;99.90
10010;DHT22;5044;48.652;9.250;2022-11-30T08:27:57;5.40;99.90
10010;DHT22;5044;48.652;9.250;2022-11-30T08:30:29;6.00;99.90
10010;DHT22;5044;48.652;9.250;2022-11-30T08:33:03;5.80;99.90
10010;DHT22;5044;48.652;9.250;2022-11-30T08:35:41;6.30;99.90
10010;DHT22;5044;48.652;9.250;2022-11-30T08:38:22;6.00;99.90
10010;DHT22;5044;48.652;9.250;2022-11-30T08:40:55;5.70;99.90
10010;DHT22;5044;48.652;9.250;2022-11-30T08:43:25;5.60;99.90
10010;DHT22;5044;48.652;9.250;2022-11-30T08:45:56;5.80;99.90
10010;DHT22;5044;48.652;9.250;2022-11-30T08:48:26;5.40;99.90
10010;DHT22;5044;48.652;9.250;2022-11-30T08:51:08;6.00;99.90
10010;DHT22;5044;48.652;9.250;2022-11-30T08:53:40;5.80;99.90
10010;DHT22;5044;48.652;9.250;2022-11-30T08:56:26;5.80;99.90
10010;DHT22;5044;48.652;9.250;2022-11-30T08:58:58;6.20;99.90
10010;DHT22;5044;48.652;9.250;2022-11-30T09:01:31;5.40;99.90
10010;DHT22;5044;48.652;9.250;2022-11-30T09:04:08;6.30;99.90
10010;DHT22;5044;48.652;9.250;2022-11-30T09:06:38;6.50;99.90
10010;DHT22;5044;48.652;9.250;2022-11-30T09:09:10;6.00;99.90
10010;DHT22;5044;48.652;9.250;2022-11-30T09:11:42;6.40;99.90
10010;DHT22;5044;48.652;9.250;2022-11-30T09:14:20;6.20;99.90
10010;DHT22;5044;48.652;9.250;2022-11-30T09:17:06;6.10;99.90
10010;DHT22;5044;48.652;9.250;2022-11-30T09:19:39;6.10;99.90
10010;DHT22;5044;48.652;9.250;2022-11-30T09:22:24;6.10;99.90
10010;DHT22;5044;48.652;9.250;2022-11-30T09:25:04;6.10;99.90
10010;DHT22;5044;48.652;9.250;2022-11-30T09:27:39;6.20;99.90
10010;DHT22;5044;48.652;9.250;2022-11-30T09:32:49;6.10;99.90
10010;DHT22;5044;48.652;9.250;2022-11-30T09:35:21;5.60;99.90
10010;DHT22;5044;48.652;9.250;2022-11-30T09:37:50;6.00;99.90
10010;DHT22;5044;48.652;9.250;2022-11-30T09:40:24;6.00;99.90
10010;DHT22;5044;48.652;9.250;2022-11-30T09:43:09;5.90;99.90
10010;DHT22;5044;48.652;9.250;2022-11-30T09:45:52;6.10;99.90
10010;DHT22;5044;48.652;9.250;2022-11-30T09:51:31;6.00;99.90
10010;DHT22;5044;48.652;9.250;2022-11-30T09:54:24;6.00;99.90
10010;DHT22;5044;48.652;9.250;2022-11-30T09:57:17;6.40;99.90
10010;DHT22;5044;48.652;9.250;2022-11-30T10:00:00;6.60;99.90
10010;DHT22;5044;48.652;9.250;2022-11-30T10:02:35;7.00;99.90
10010;DHT22;5044;48.652;9.250;2022-11-30T10:05:13;6.50;99.90
10010;DHT22;5044;48.652;9.250;2022-11-30T10:07:56;6.50;99.90
10010;DHT22;5044;48.652;9.250;2022-11-30T10:13:15;6.60;99.90
10010;DHT22;5044;48.652;9.250;2022-11-30T10:16:13;6.60;99.90
10010;DHT22;5044;48.652;9.250;2022-11-30T10:19:01;6.60;99.90
10010;DHT22;5044;48.652;9.250;2022-11-30T10:21:44;6.70;99.90
10010;DHT22;5044;48.652;9.250;2022-11-30T10:24:28;6.70;99.90
10010;DHT22;5044;48.652;9.250;2022-11-30T10:27:00;6.50;99.90
10010;DHT22;5044;48.652;9.250;2022-11-30T10:29:37;6.40;99.90
10010;DHT22;5044;48.652;9.250;2022-11-30T10:32:12;6.50;99.90
10010;DHT22;5044;48.652;9.250;2022-11-30T10:34:46;6.50;99.90
10010;DHT22;5044;48.652;9.250;2022-11-30T10:37:24;6.40;99.90
10010;DHT22;5044;48.652;9.250;2022-11-30T10:42:33;6.70;99.90
10010;DHT22;5044;48.652;9.250;2022-11-30T10:45:06;6.90;99.90
10010;DHT22;5044;48.652;9.250;2022-11-30T10:47:47;6.60;99.90
10010;DHT22;5044;48.652;9.250;2022-11-30T10:50:19;6.80;99.90
10010;DHT22;5044;48.652;9.250;2022-11-30T10:53:02;6.60;99.90
10010;DHT22;5044;48.652;9.250;2022-11-30T10:55:35;6.30;99.90
10010;DHT22;5044;48.652;9.250;2022-11-30T10:58:15;6.60;99.90
10010;DHT22;5044;48.652;9.250;2022-11-30T11:00:57;6.60;99.90
10010;DHT22;5044;48.652;9.250;2022-11-30T11:03:36;6.60;99.90
10010;DHT22;5044;48.652;9.250;2022-11-30T11:06:17;6.90;99.90
10010;DHT22;5044;48.652;9.250;2022-11-30T11:08:49;6.60;99.90
10010;DHT22;5044;48.652;9.250;2022-11-30T11:11:32;6.80;99.90
10010;DHT22;5044;48.652;9.250;2022-11-30T11:14:16;6.80;99.90
10010;DHT22;5044;48.652;9.250;2022-11-30T11:16:59;6.60;99.90
10010;DHT22;5044;48.652;9.250;2022-11-30T11:19:52;6.60;99.90
10010;DHT22;5044;48.652;9.250;2022-11-30T11:22:30;6.60;99.90
10010;DHT22;5044;48.652;9.250;2022-11-30T11:25:15;6.70;99.90
10010;DHT22;5044;48.652;9.250;2022-11-30T11:28:00;6.40;99.90
10010;DHT22;5044;48.652;9.250;2022-11-30T11:30:34;6.90;99.90
10010;DHT22;5044;48.652;9.250;2022-11-30T11:33:24;6.60;99.90
10010;DHT22;5044;48.652;9.250;2022-11-30T11:36:13;6.90;99.90
10010;DHT22;5044;48.652;9.250;2022-11-30T11:38:46;6.50;99.90
10010;DHT22;5044;48.652;9.250;2022-11-30T11:41:24;6.50;99.90
10010;DHT22;5044;48.652;9.250;2022-11-30T11:44:14;6.40;99.90
10010;DHT22;5044;48.652;9.250;2022-11-30T11:46:55;6.90;99.90
10010;DHT22;5044;48.652;9.250;2022-11-30T11:49:24;6.50;99.90
10010;DHT22;5044;48.652;9.250;2022-11-30T11:52:04;6.50;99.90
10010;DHT22;5044;48.652;9.250;2022-11-30T11:54:42;6.40;99.90
10010;DHT22;5044;48.652;9.250;2022-11-30T11:57:22;7.20;99.90
10010;DHT22;5044;48.652;9.250;2022-11-30T11:59:55;6.90;99.90
10010;DHT22;5044;48.652;9.250;2022-11-30T12:02:36;6.50;99.90
10010;DHT22;5044;48.652;9.250;2022-11-30T12:05:16;6.50;99.90
10010;DHT22;5044;48.652;9.250;2022-11-30T12:08:05;6.50;99.90
10010;DHT22;5044;48.652;9.250;2022-11-30T12:10:42;6.40;99.90
10010;DHT22;5044;48.652;9.250;2022-11-30T12:13:30;6.50;99.90
10010;DHT22;5044;48.652;9.250;2022-11-30T12:16:24;6.50;99.90
10010;DHT22;5044;48.652;9.250;2022-11-30T12:19:17;6.50;99.90
10010;DHT22;5044;48.652;9.250;2022-11-30T12:21:56;6.90;99.90
10010;DHT22;5044;48.652;9.250;2022-11-30T12:25:02;6.40;99.90
10010;DHT22;5044;48.652;9.250;2022-11-30T12:27:42;6.50;99.90
10010;DHT22;5044;48.652;9.250;2022-11-30T12:30:23;6.60;99.90
10010;DHT22;5044;48.652;9.250;2022-11-30T12:33:11;6.60;99.90
10010;DHT22;5044;48.652;9.250;2022-11-30T12:38:47;6.70;99.90
10010;DHT22;5044;48.652;9.250;2022-11-30T12:44:54;6.60;99.90
10010;DHT22;5044;48.652;9.250;2022-11-30T12:47:48;6.40;99.90
10010;DHT22;5044;48.652;9.250;2022-11-30T12:53:31;6.60;99.90
10010;DHT22;5044;48.652;9.250;2022-11-30T12:56:29;6.40;99.90
10010;DHT22;5044;48.652;9.250;2022-11-30T12:59:36;6.70;99.90
10010;DHT22;5044;48.652;9.250;2022-11-30T13:03:07;6.80;99.90
10010;DHT22;5044;48.652;9.250;2022-11-30T13:05:58;6.50;99.90
10010;DHT22;5044;48.652;9.250;2022-11-30T13:11:50;6.50;99.90
10010;DHT22;5044;48.652;9.250;2022-11-30T13:14:27;6.50;99.90
10010;DHT22;5044;48.652;9.250;2022-11-30T13:17:02;6.60;99.90
10010;DHT22;5044;48.652;9.250;2022-11-30T13:19:47;6.60;99.90
10010;DHT22;5044;48.652;9.250;2022-11-30T13:22:25;6.60;99.90
10010;DHT22;5044;48.652;9.250;2022-11-30T13:25:17;6.60;99.90
10010;DHT22;5044;48.652;9.250;2022-11-30T13:28:03;6.50;99.90
10010;DHT22;5044;48.652;9.250;2022-11-30T13:40:32;6.30;99.90
10010;DHT22;5044;48.652;9.250;2022-11-30T13:43:58;6.40;99.90
10010;DHT22;5044;48.652;9.250;2022-11-30T13:47:17;6.30;99.90
10010;DHT22;5044;48.652;9.250;2022-11-30T13:49:59;6.50;99.90
10010;DHT22;5044;48.652;9.250;2022-11-30T13:59:51;6.50;99.90
10010;DHT22;5044;48.652;9.250;2022-11-30T14:06:42;6.30;99.90
10010;DHT22;5044;48.652;9.250;2022-11-30T14:12:57;6.20;99.90
10010;DHT22;5044;48.652;9.250;2022-11-30T14:37:19;6.00;99.90
10010;DHT22;5044;48.652;9.250;2022-11-30T14:40:00;6.00;99.90
10010;DHT22;5044;48.652;9.250;2022-11-30T14:42:46;6.00;99.90
10010;DHT22;5044;48.652;9.250;2022-11-30T15:06:05;5.70;99.90
10010;DHT22;5044;48.652;9.250;2022-11-30T15:09:17;5.70;99.90
10010;DHT22;5044;48.652;9.250;2022-11-30T15:11:59;5.00;99.90
10010;DHT22;5044;48.652;9.250;2022-11-30T15:14:33;6.10;99.90
10010;DHT22;5044;48.652;9.250;2022-11-30T15:17:28;5.60;99.90
10010;DHT22;5044;48.652;9.250;2022-11-30T15:19:57;5.60;99.90
10010;DHT22;5044;48.652;9.250;2022-11-30T15:22:46;5.60;99.90
10010;DHT22;5044;48.652;9.250;2022-11-30T15:32:07;5.50;99.90
10010;DHT22;5044;48.652;9.250;2022-11-30T15:34:57;5.40;99.90
10010;DHT22;5044;48.652;9.250;2022-11-30T15:37:38;5.00;99.90
10010;DHT22;5044;48.652;9.250;2022-11-30T15:40:22;5.40;99.90
10010;DHT22;5044;48.652;9.250;2022-11-30T15:44:23;5.50;99.90
10010;DHT22;5044;48.652;9.250;2022-11-30T15:46:33;5.30;99.90
10010;DHT22;5044;48.652;9.250;2022-11-30T15:49:26;5.40;99.90
10010;DHT22;5044;48.652;9.250;2022-11-30T15:52:02;5.40;99.90
10010;DHT22;5044;48.652;9.250;2022-11-30T16:55:19;5.20;99.90
10010;DHT22;5044;48.652;9.250;2022-11-30T16:57:48;5.10;99.90
10010;DHT22;5044;48.652;9.250;2022-11-30T17:00:19;5.20;99.90
10010;DHT22;5044;48.652;9.250;2022-11-30T17:02:53;4.80;99.90
10010;DHT22;5044;48.652;9.250;2022-11-30T17:05:21;5.10;99.90
10010;DHT22;5044;48.652;9.250;2022-11-30T17:07:48;5.20;99.90
10010;DHT22;5044;48.652;9.250;2022-11-30T17:10:18;5.20;99.90
10010;DHT22;5044;48.652;9.250;2022-11-30T17:12:46;5.10;99.90
10010;DHT22;5044;48.652;9.250;2022-11-30T17:15:17;5.70;99.90
10010;DHT22;5044;48.652;9.250;2022-11-30T17:17:44;5.10;99.90
10010;DHT22;5044;48.652;9.250;2022-11-30T17:20:12;6.00;99.90
10010;DHT22;5044;48.652;9.250;2022-11-30T17:22:40;5.10;99.90
10010;DHT22;5044;48.652;9.250;2022-11-30T17:25:16;5.10;99.90
10010;DHT22;5044;48.652;9.250;2022-11-30T17:27:46;5.10;99.90
10010;DHT22;5044;48.652;9.250;2022-11-30T17:30:15;5.20;99.90
10010;DHT22;5044;48.652;9.250;2022-11-30T17:32:43;5.10;99.90
10010;DHT22;5044;48.652;9.250;2022-11-30T17:35:10;5.00;99.90
10010;DHT22;5044;48.652;9.250;2022-11-30T17:37:37;5.10;99.90
10010;DHT22;5044;48.652;9.250;2022-11-30T17:40:06;5.50;99.90
10010;DHT22;5044;48.652;9.250;2022-11-30T17:42:36;5.00;99.90
10010;DHT22;5044;48.652;9.250;2022-11-30T17:45:07;5.00;99.90
10010;DHT22;5044;48.652;9.250;2022-11-30T17:47:35;5.10;99.90
10010;DHT22;5044;48.652;9.250;2022-11-30T17:50:02;5.00;99.90
10010;DHT22;5044;48.652;9.250;2022-11-30T17:52:31;5.00;99.90
10010;DHT22;5044;48.652;9.250;2022-11-30T17:54:58;5.10;99.90
10010;DHT22;5044;48.652;9.250;2022-11-30T17:57:27;5.00;99.90
10010;DHT22;5044;48.652;9.250;2022-11-30T17:59:54;5.00;99.90
10010;DHT22;5044;48.652;9.250;2022-11-30T18:02:23;5.00;99.90
10010;DHT22;5044;48.652;9.250;2022-11-30T18:04:51;5.00;99.90
10010;DHT22;5044;48.652;9.250;2022-11-30T18:07:19;5.00;99.90
10010;DHT22;5044;48.652;9.250;2022-11-30T18:09:46;5.40;99.90
10010;DHT22;5044;48.652;9.250;2022-11-30T18:12:13;5.40;99.90
10010;DHT22;5044;48.652;9.250;2022-11-30T18:14:40;5.40;99.90
10010;DHT22;5044;48.652;9.250;2022-11-30T18:17:07;5.00;99.90
10010;DHT22;5044;48.652;9.250;2022-11-30T18:19:35;5.00;99.90
10010;DHT22;5044;48.652;9.250;2022-11-30T18:22:02;5.00;99.90
10010;DHT22;5044;48.652;9.250;2022-11-30T18:24:31;4.60;99.90
10010;DHT22;5044;48.652;9.250;2022-11-30T18:26:57;5.00;99.90
10010;DHT22;5044;48.652;9.250;2022-11-30T18:29:24;5.40;99.90
10010;DHT22;5044;48.652;9.250;2022-11-30T18:31:51;5.00;99.90
10010;DHT22;5044;48.652;9.250;2022-11-30T18:34:18;5.10;99.90
10010;DHT22;5044;48.652;9.250;2022-11-30T18:36:48;4.90;99.90
10010;DHT22;5044;48.652;9.250;2022-11-30T18:39:15;5.20;99.90
10010;DHT22;5044;48.652;9.250;2022-11-30T18:41:42;5.00;99.90
10010;DHT22;5044;48.652;9.250;2022-11-30T18:44:09;4.90;99.90
10010;DHT22;5044;48.652;9.250;2022-11-30T18:46:36;4.90;99.90
10010;DHT22;5044;48.652;9.250;2022-11-30T18:49:03;5.20;99.90
10010;DHT22;5044;48.652;9.250;2022-11-30T18:51:31;4.90;99.90
10010;DHT22;5044;48.652;9.250;2022-11-30T18:54:01;4.80;99.90
10010;DHT22;5044;48.652;9.250;2022-11-30T18:56:31;4.80;99.90
10010;DHT22;5044;48.652;9.250;2022-11-30T18:59:00;4.80;99.90
10010;DHT22;5044;48.652;9.250;2022-11-30T19:01:28;4.80;99.90
10010;DHT22;5044;48.652;9.250;2022-11-30T19:03:57;4.80;99.90
10010;DHT22;5044;48.652;9.250;2022-11-30T19:06:25;4.80;99.90
10010;DHT22;5044;48.652;9.250;2022-11-30T19:08:54;5.30;99.90
10010;DHT22;5044;48.652;9.250;2022-11-30T19:11:22;4.80;99.90
10010;DHT22;5044;48.652;9.250;2022-11-30T19:13:52;4.80;99.90
10010;DHT22;5044;48.652;9.250;2022-11-30T19:16:20;5.10;99.90
10010;DHT22;5044;48.652;9.250;2022-11-30T19:18:49;4.70;99.90
10010;DHT22;5044;48.652;9.250;2022-11-30T19:21:20;4.70;99.90
10010;DHT22;5044;48.652;9.250;2022-11-30T19:23:48;4.70;99.90
10010;DHT22;5044;48.652;9.250;2022-11-30T19:26:17;4.80;99.90
10010;DHT22;5044;48.652;9.250;2022-11-30T19:28:46;4.70;99.90
10010;DHT22;5044;48.652;9.250;2022-11-30T19:31:14;4.60;99.90
10010;DHT22;5044;48.652;9.250;2022-11-30T19:33:43;4.60;99.90
10010;DHT22;5044;48.652;9.250;2022-11-30T19:36:13;4.60;99.90
10010;DHT22;5044;48.652;9.250;2022-11-30T19:38:45;4.70;99.90
10010;DHT22;5044;48.652;9.250;2022-11-30T19:41:17;4.60;99.90
10010;DHT22;5044;48.652;9.250;2022-11-30T19:43:47;5.40;99.90
10010;DHT22;5044;48.652;9.250;2022-11-30T19:46:21;4.50;99.90
10010;DHT22;5044;48.652;9.250;2022-11-30T19:48:54;4.50;99.90
10010;DHT22;5044;48.652;9.250;2022-11-30T19:51:22;5.20;99.90
10010;DHT22;5044;48.652;9.250;2022-11-30T19:53:49;4.50;99.90
10010;DHT22;5044;48.652;9.250;2022-11-30T19:56:22;4.50;99.90
10010;DHT22;5044;48.652;9.250;2022-11-30T19:58:52;4.90;99.90
10010;DHT22;5044;48.652;9.250;2022-11-30T20:01:20;4.40;99.90
10010;DHT22;5044;48.652;9.250;2022-11-30T20:03:49;4.30;99.90
10010;DHT22;5044;48.652;9.250;2022-11-30T20:06:16;4.80;99.90
10010;DHT22;5044;48.652;9.250;2022-11-30T20:08:43;4.20;99.90
10010;DHT22;5044;48.652;9.250;2022-11-30T20:11:12;4.10;99.90
10010;DHT22;5044;48.652;9.250;2022-11-30T20:13:40;4.10;99.90
10010;DHT22;5044;48.652;9.250;2022-11-30T20:16:11;4.00;99.90
10010;DHT22;5044;48.652;9.250;2022-11-30T20:18:38;4.00;99.90
10010;DHT22;5044;48.652;9.250;2022-11-30T20:21:12;3.90;99.90
10010;DHT22;5044;48.652;9.250;2022-11-30T20:23:40;4.50;99.90
10010;DHT22;5044;48.652;9.250;2022-11-30T20:26:12;4.60;99.90
10010;DHT22;5044;48.652;9.250;2022-11-30T20:28:39;4.40;99.90
10010;DHT22;5044;48.652;9.250;2022-11-30T20:31:10;4.00;99.90
10010;DHT22;5044;48.652;9.250;2022-11-30T20:33:38;3.90;99.90
10010;DHT22;5044;48.652;9.250;2022-11-30T20:36:07;4.30;99.90
10010;DHT22;5044;48.652;9.250;2022-11-30T20:38:36;3.80;99.90
10010;DHT22;5044;48.652;9.250;2022-11-30T20:41:06;4.10;99.90
10010;DHT22;5044;48.652;9.250;2022-11-30T20:43:34;3.80;99.90
10010;DHT22;5044;48.652;9.250;2022-11-30T20:46:01;3.70;99.90
10010;DHT22;5044;48.652;9.250;2022-11-30T20:48:32;3.90;99.90
10010;DHT22;5044;48.652;9.250;2022-11-30T20:51:06;3.80;99.90
10010;DHT22;5044;48.652;9.250;2022-11-30T20:53:33;3.80;99.90
10010;DHT22;5044;48.652;9.250;2022-11-30T20:56:01;3.80;99.90
10010;DHT22;5044;48.652;9.250;2022-11-30T21:16:22;3.40;99.90
10010;DHT22;5044;48.652;9.250;2022-11-30T21:23:28;3.20;99.90
10010;DHT22;5044;48.652;9.250;2022-11-30T21:30:28;3.60;99.90
10010;DHT22;5044;48.652;9.250;2022-11-30T21:40:23;3.60;99.90
10010;DHT22;5044;48.652;9.250;2022-11-30T21:43:44;3.10;99.90
10010;DHT22;5044;48.652;9.250;2022-11-30T21:46:35;3.70;99.90
10010;DHT22;5044;48.652;9.250;2022-11-30T21:49:25;4.10;99.90
10010;DHT22;5044;48.652;9.250;2022-11-30T22:09:04;3.20;99.90
10010;DHT22;5044;48.652;9.250;2022-11-30T22:12:21;3.20;99.90
10010;DHT22;5044;48.652;9.250;2022-11-30T22:21:42;3.40;99.90
10010;DHT22;5044;48.652;9.250;2022-11-30T22:24:30;2.80;99.90
10010;DHT22;5044;48.652;9.250;2022-11-30T22:30:10;2.80;99.90
10010;DHT22;5044;48.652;9.250;2022-11-30T22:32:59;2.40;99.90
10010;DHT22;5044;48.652;9.250;2022-11-30T22:46:26;2.90;99.90
10010;DHT22;5044;48.652;9.250;2022-11-30T22:49:00;2.90;99.90
10010;DHT22;5044;48.652;9.250;2022-11-30T22:51:29;3.70;99.90
10010;DHT22;5044;48.652;9.250;2022-11-30T22:58:07;3.30;99.90
10010;DHT22;5044;48.652;9.250;2022-11-30T23:00:34;2.80;99.90
10010;DHT22;5044;48.652;9.250;2022-11-30T23:09:59;2.90;99.90
10010;DHT22;5044;48.652;9.250;2022-11-30T23:13:19;3.70;99.90
10010;DHT22;5044;48.652;9.250;2022-11-30T23:16:39;2.80;99.90
10010;DHT22;5044;48.652;9.250;2022-11-30T23:19:59;2.80;99.90
10010;DHT22;5044;48.652;9.250;2022-11-30T23:23:12;2.80;99.90
10010;DHT22;5044;48.652;9.250;2022-11-30T23:25:40;2.70;99.90
10010;DHT22;5044;48.652;9.250;2022-11-30T23:38:24;2.80;99.90
10010;DHT22;5044;48.652;9.250;2022-11-30T23:41:10;2.90;99.90
